Time;durP1;ratioP1;P1;durP2;ratioP2;P2;SDS_P1;SDS_P2;PMS_P1;PMS_P2;Temp;Humidity;BMP_temperature;BMP_pressure;BME280_temperature;BME280_humidity;BME280_pressure;Samples;Min_cycle;Max_cycle;Signal;HPM_P1;HPM_P2
2021/10/26 00:01:14;;;;;;;14.63;8.58;;;;;;;21.35;52.64;102166.52;1745155;81;21146;-51
2021/10/26 00:03:40;;;;;;;16.85;8.63;;;;;;;21.34;52.61;102160.16;1742335;81;21620;-48
2021/10/26 00:06:06;;;;;;;10.82;7.90;;;;;;;21.33;52.59;102156.31;1736757;81;21112;-49
2021/10/26 00:08:32;;;;;;;15.08;8.90;;;;;;;21.34;52.57;102157.97;1744242;81;21310;-49
2021/10/26 00:10:58;;;;;;;13.10;8.43;;;;;;;21.32;52.55;102162.41;1743017;81;23363;-50
2021/10/26 00:13:24;;;;;;;13.38;8.18;;;;;;;21.32;52.54;102159.64;1741400;80;20935;-49
2021/10/26 00:15:51;;;;;;;13.22;8.30;;;;;;;21.32;52.53;102156.04;1743095;81;22529;-51
2021/10/26 00:18:18;;;;;;;13.18;8.50;;;;;;;21.31;52.50;102148.29;1738180;81;22419;-48
2021/10/26 00:20:44;;;;;;;14.47;8.78;;;;;;;21.31;52.49;102145.52;1738692;81;21305;-51
2021/10/26 00:23:10;;;;;;;12.00;7.67;;;;;;;21.30;52.46;102144.45;1748658;81;21052;-50
2021/10/26 00:25:36;;;;;;;12.25;8.33;;;;;;;21.28;52.44;102136.42;1737948;81;20883;-51
2021/10/26 00:28:03;;;;;;;12.23;8.15;;;;;;;21.29;52.42;102139.47;1742509;81;20911;-49
2021/10/26 00:30:30;;;;;;;15.70;8.70;;;;;;;21.29;52.40;102136.70;1747890;81;21170;-50
2021/10/26 00:32:56;;;;;;;13.80;8.83;;;;;;;21.28;52.40;102135.04;1745586;81;21318;-50
2021/10/26 00:35:27;;;;;;;13.72;8.50;;;;;;;21.28;52.37;102136.42;1740002;81;21081;-49
2021/10/26 00:37:50;;;;;;;14.30;9.38;;;;;;;21.28;52.35;102136.42;1743389;81;21123;-49
2021/10/26 00:40:16;;;;;;;13.60;9.25;;;;;;;21.28;52.33;102136.97;1742624;81;21064;-49
2021/10/26 00:42:42;;;;;;;14.58;9.35;;;;;;;21.28;52.30;102146.66;1742234;81;20919;-47
2021/10/26 00:45:09;;;;;;;13.90;8.65;;;;;;;21.26;52.29;102135.07;1745673;81;21973;-49
2021/10/26 00:47:35;;;;;;;12.10;8.63;;;;;;;21.26;52.25;102136.45;1743144;81;21634;-47
2021/10/26 00:50:01;;;;;;;13.90;9.50;;;;;;;21.27;52.24;102135.31;1744797;81;21554;-47
2021/10/26 00:52:27;;;;;;;13.22;8.65;;;;;;;21.26;52.22;102135.07;1743617;81;21055;-52
2021/10/26 00:54:53;;;;;;;13.55;8.90;;;;;;;21.24;52.21;102125.66;1739786;81;20949;-48
2021/10/26 00:57:25;;;;;;;13.70;9.15;;;;;;;21.24;52.19;102122.89;1742089;80;21628;-51
2021/10/26 00:59:47;;;;;;;12.90;9.05;;;;;;;21.25;52.18;102125.11;1742423;81;21103;-47
2021/10/26 01:02:13;;;;;;;15.23;10.00;;;;;;;21.24;52.13;102120.69;1739661;81;20927;-48
2021/10/26 01:04:40;;;;;;;15.75;10.38;;;;;;;21.24;52.13;102115.97;1742183;81;20911;-47
2021/10/26 01:07:06;;;;;;;14.93;9.88;;;;;;;21.23;52.11;102114.31;1716521;81;21156;-47
2021/10/26 01:09:32;;;;;;;13.78;8.48;;;;;;;21.23;52.09;102110.72;1742543;81;21950;-51
2021/10/26 01:11:58;;;;;;;15.13;9.78;;;;;;;21.19;52.05;102106.33;1742221;81;20924;-48
2021/10/26 01:14:24;;;;;;;12.23;8.85;;;;;;;21.22;52.04;102102.97;1747583;80;21115;-51
2021/10/26 01:16:50;;;;;;;16.57;9.53;;;;;;;21.21;52.04;102094.98;1748678;81;21135;-50
2021/10/26 01:19:17;;;;;;;12.60;9.43;;;;;;;21.21;52.01;102098.58;1747089;81;21611;-51
2021/10/26 01:21:43;;;;;;;14.28;9.55;;;;;;;21.20;51.98;102095.53;1743835;81;21237;-51
2021/10/26 01:24:09;;;;;;;12.43;8.98;;;;;;;21.20;51.98;102099.69;1740823;81;21529;-47
2021/10/26 01:26:35;;;;;;;17.35;9.75;;;;;;;21.20;51.96;102096.92;1738791;81;20954;-50
2021/10/26 01:29:01;;;;;;;14.90;9.83;;;;;;;21.19;51.94;102095.81;1738577;81;21591;-49
2021/10/26 01:31:27;;;;;;;13.65;9.18;;;;;;;21.20;51.93;102090.55;1745481;81;20933;-48
2021/10/26 01:33:53;;;;;;;15.08;9.68;;;;;;;21.18;51.88;102088.06;1740973;81;22361;-48
2021/10/26 01:36:21;;;;;;;15.50;9.83;;;;;;;21.18;51.88;102085.30;1743106;81;21108;-51
2021/10/26 01:38:47;;;;;;;15.48;9.25;;;;;;;21.19;51.88;102084.73;1749561;81;21143;-48
2021/10/26 01:41:13;;;;;;;12.80;9.45;;;;;;;21.18;51.84;102085.84;1711531;81;21559;-47
2021/10/26 01:43:39;;;;;;;14.25;9.73;;;;;;;21.18;51.82;102088.62;1741776;81;20901;-50
2021/10/26 01:46:05;;;;;;;12.80;9.70;;;;;;;21.16;51.82;102079.24;1747934;81;22251;-51
2021/10/26 01:48:32;;;;;;;14.70;10.15;;;;;;;21.16;51.81;102083.39;1738774;81;20982;-47
2021/10/26 01:50:59;;;;;;;14.38;9.55;;;;;;;21.16;51.79;102076.47;1740411;80;22287;-48
2021/10/26 01:53:26;;;;;;;14.75;10.10;;;;;;;21.16;51.79;102075.64;1733413;80;21092;-48
2021/10/26 01:55:53;;;;;;;15.35;9.40;;;;;;;21.15;51.76;102078.14;1741827;81;21092;-49
2021/10/26 01:58:19;;;;;;;13.20;8.70;;;;;;;21.15;51.74;102075.37;1739234;80;21143;-48
2021/10/26 02:00:45;;;;;;;13.68;9.25;;;;;;;21.14;51.74;102076.48;1748432;81;21540;-49
2021/10/26 02:03:11;;;;;;;13.60;9.45;;;;;;;21.14;51.70;102070.94;1738041;80;20986;-51
2021/10/26 02:05:37;;;;;;;13.10;9.25;;;;;;;21.14;51.70;102075.92;1737250;81;20981;-48
2021/10/26 02:08:04;;;;;;;13.45;9.28;;;;;;;21.14;51.69;102079.25;1741124;80;21566;-48
2021/10/26 02:10:31;;;;;;;13.83;10.10;;;;;;;21.13;51.65;102080.38;1737263;81;21131;-48
2021/10/26 02:12:57;;;;;;;13.83;10.13;;;;;;;21.13;51.65;102079.00;1739889;80;21110;-50
2021/10/26 02:15:23;;;;;;;13.20;9.10;;;;;;;21.13;51.63;102084.53;1746042;80;21410;-48
2021/10/26 02:17:49;;;;;;;13.05;10.03;;;;;;;21.11;51.59;102079.25;1744111;81;21102;-48
2021/10/26 02:20:15;;;;;;;13.93;9.28;;;;;;;21.12;51.59;102087.00;1749253;81;21849;-48
2021/10/26 02:22:41;;;;;;;14.55;9.60;;;;;;;21.11;51.58;102080.63;1744698;80;21660;-48
2021/10/26 02:25:08;;;;;;;15.13;10.03;;;;;;;21.10;51.55;102083.68;1749056;80;20978;-51
2021/10/26 02:27:34;;;;;;;14.50;9.48;;;;;;;21.11;51.55;102079.80;1713298;81;21542;-48
2021/10/26 02:30:00;;;;;;;12.63;9.15;;;;;;;21.09;51.53;102080.08;1709193;81;20944;-48
2021/10/26 02:32:26;;;;;;;15.20;9.48;;;;;;;21.09;51.50;102084.23;1750872;80;21662;-48
2021/10/26 02:34:52;;;;;;;13.48;9.55;;;;;;;21.10;51.50;102078.14;1722364;81;21239;-50
2021/10/26 02:37:19;;;;;;;13.32;9.28;;;;;;;21.10;51.46;102076.77;1748436;81;21666;-48
2021/10/26 02:39:45;;;;;;;13.58;9.65;;;;;;;21.09;51.46;102070.98;1749179;81;21007;-49
2021/10/26 02:42:11;;;;;;;13.65;9.10;;;;;;;21.08;51.44;102073.47;1744261;80;21521;-49
2021/10/26 02:44:37;;;;;;;13.85;9.88;;;;;;;21.07;51.43;102069.88;1749074;81;21097;-50
2021/10/26 02:47:04;;;;;;;11.63;8.70;;;;;;;21.07;51.40;102067.11;1777334;78;21352;-49
2021/10/26 02:49:30;;;;;;;13.13;9.00;;;;;;;21.07;51.38;102069.05;1787053;79;21602;-52
2021/10/26 02:51:57;;;;;;;13.25;8.48;;;;;;;21.07;51.36;102060.75;1755997;79;21119;-50
2021/10/26 02:54:23;;;;;;;12.68;9.05;;;;;;;21.06;51.34;102062.69;1780692;78;21101;-47
2021/10/26 02:56:49;;;;;;;12.10;8.93;;;;;;;21.07;51.32;102060.75;1781455;78;21730;-49
2021/10/26 02:59:15;;;;;;;12.40;9.28;;;;;;;21.05;51.29;102057.46;1786133;78;21966;-49
2021/10/26 03:01:41;;;;;;;13.72;9.23;;;;;;;21.04;51.29;102060.78;1777130;78;21130;-47
2021/10/26 03:04:07;;;;;;;14.53;9.13;;;;;;;21.04;51.27;102058.02;1770808;78;20950;-48
2021/10/26 03:06:33;;;;;;;11.00;8.13;;;;;;;21.04;51.24;102066.88;1784907;78;20916;-47
2021/10/26 03:08:59;;;;;;;12.65;8.88;;;;;;;21.03;51.22;102074.34;1783523;78;21102;-49
2021/10/26 03:11:26;;;;;;;11.10;8.45;;;;;;;21.05;51.25;102071.30;1781432;78;22121;-49
2021/10/26 03:13:52;;;;;;;11.18;8.50;;;;;;;21.04;51.22;102067.70;1782032;78;21088;-47
2021/10/26 03:16:18;;;;;;;11.63;8.03;;;;;;;21.05;51.24;102061.61;1762529;79;21059;-48
2021/10/26 03:18:44;;;;;;;13.18;8.83;;;;;;;21.07;51.23;102060.75;1766040;79;20899;-47
2021/10/26 03:21:10;;;;;;;12.10;8.50;;;;;;;21.08;51.22;102059.09;1767810;79;20917;-47
2021/10/26 03:23:37;;;;;;;10.15;7.65;;;;;;;21.10;51.24;102054.63;1768515;80;21355;-48
2021/10/26 03:26:03;;;;;;;11.22;7.37;;;;;;;21.11;51.25;102056.28;1777910;78;21052;-47
2021/10/26 03:28:29;;;;;;;10.85;7.42;;;;;;;21.12;51.26;102049.64;1773853;79;21696;-48
2021/10/26 03:30:57;;;;;;;10.63;7.55;;;;;;;21.13;51.27;102047.17;1775664;79;20911;-48
2021/10/26 03:33:23;;;;;;;9.20;7.30;;;;;;;21.14;51.27;102043.27;1791989;78;21330;-47
2021/10/26 03:35:51;;;;;;;10.38;7.67;;;;;;;21.14;51.29;102049.63;1788393;79;20889;-48
2021/10/26 03:38:17;;;;;;;10.68;7.70;;;;;;;21.17;51.30;102047.69;1790233;78;21022;-52
2021/10/26 03:40:43;;;;;;;11.35;7.47;;;;;;;21.17;51.31;102046.86;1787326;78;21075;-48
2021/10/26 03:43:09;;;;;;;11.10;6.72;;;;;;;21.19;51.33;102050.97;1755099;80;21153;-49
2021/10/26 03:45:35;;;;;;;8.58;6.37;;;;;;;21.21;51.31;102045.98;1760087;79;21012;-48
2021/10/26 03:48:01;;;;;;;11.45;6.83;;;;;;;21.21;51.35;102047.37;1756901;80;21762;-48
2021/10/26 03:50:27;;;;;;;9.95;5.67;;;;;;;21.23;51.35;102047.06;1752860;79;21066;-49
2021/10/26 03:52:53;;;;;;;8.65;5.22;;;;;;;21.24;51.39;102048.72;1766531;80;21497;-48
2021/10/26 03:55:20;;;;;;;8.08;6.05;;;;;;;21.26;51.40;102054.80;1761134;80;21118;-49
2021/10/26 03:57:47;;;;;;;10.08;6.37;;;;;;;21.26;51.39;102048.67;1768551;80;21510;-49
2021/10/26 04:00:14;;;;;;;7.95;5.37;;;;;;;21.27;51.43;102050.34;1764083;80;21222;-49
2021/10/26 04:02:41;;;;;;;7.97;5.55;;;;;;;21.29;51.43;102048.67;1763046;80;21344;-49
2021/10/26 04:05:46;;;;;;;6.78;5.03;;;;;;;21.30;51.45;102043.41;1770775;80;21479;-50
2021/10/26 04:07:48;;;;;;;8.98;5.30;;;;;;;21.32;51.47;102039.77;1752697;80;21070;-49
2021/10/26 04:10:17;;;;;;;7.83;5.05;;;;;;;21.33;51.48;102046.41;1763148;80;21119;-49
2021/10/26 04:12:42;;;;;;;;;;;;;;;21.34;51.50;102035.58;1768920;79;21972;-49
2021/10/26 04:15:09;;;;;;;7.28;4.35;;;;;;;21.35;51.52;102037.80;1766152;80;21035;-50
2021/10/26 04:17:35;;;;;;;7.58;5.08;;;;;;;21.34;51.55;102036.97;1764522;80;21089;-50
2021/10/26 04:20:01;;;;;;;7.15;4.50;;;;;;;21.36;51.57;102036.13;1765546;80;21107;-50
2021/10/26 04:22:27;;;;;;;7.65;5.35;;;;;;;21.36;51.58;102030.59;1769145;79;20910;-49
2021/10/26 04:24:53;;;;;;;7.20;4.62;;;;;;;21.37;51.59;102025.33;1765428;80;22912;-49
2021/10/26 04:27:20;;;;;;;8.20;5.12;;;;;;;21.40;51.62;102032.20;1770283;80;21171;-47
2021/10/26 04:29:46;;;;;;;7.10;5.08;;;;;;;21.40;51.60;102031.66;1761376;80;21086;-51
2021/10/26 04:32:13;;;;;;;7.08;5.12;;;;;;;21.41;51.62;102030.55;1768651;80;21056;-48
2021/10/26 04:34:39;;;;;;;8.78;5.45;;;;;;;21.42;51.61;102029.98;1763513;80;21119;-50
2021/10/26 04:37:06;;;;;;;7.45;4.90;;;;;;;21.43;51.63;102032.44;1763857;80;22470;-50
2021/10/26 04:39:34;;;;;;;8.15;5.28;;;;;;;21.45;51.63;102029.95;1763377;80;21092;-49
2021/10/26 04:42:02;;;;;;;7.17;5.00;;;;;;;21.46;51.65;102037.14;1765668;80;21654;-50
2021/10/26 04:44:29;;;;;;;9.45;6.37;;;;;;;21.46;51.63;102035.20;1760378;80;21645;-50
2021/10/26 04:46:55;;;;;;;9.25;6.72;;;;;;;21.46;51.63;102034.38;1763378;80;21210;-52
2021/10/26 04:49:21;;;;;;;13.65;6.85;;;;;;;21.46;51.63;102037.97;1762287;80;21287;-50
2021/10/26 04:51:47;;;;;;;8.50;6.42;;;;;;;21.46;51.63;102030.22;1765122;80;20943;-52
2021/10/26 04:54:13;;;;;;;8.58;6.20;;;;;;;21.47;51.62;102029.11;1760279;80;21148;-48
2021/10/26 04:56:39;;;;;;;8.03;6.22;;;;;;;21.46;51.62;102032.98;1764085;80;20949;-49
2021/10/26 04:59:05;;;;;;;8.75;6.20;;;;;;;21.47;51.60;102029.11;1764707;80;21074;-50
2021/10/26 05:01:31;;;;;;;8.93;6.40;;;;;;;21.46;51.62;102028.28;1763669;79;21016;-52
2021/10/26 05:03:57;;;;;;;8.88;6.60;;;;;;;21.47;51.60;102039.63;1766343;80;21006;-49
2021/10/26 05:06:24;;;;;;;10.98;6.70;;;;;;;21.47;51.60;102029.11;1760862;79;20987;-52
2021/10/26 05:08:52;;;;;;;9.98;7.00;;;;;;;21.47;51.57;102030.49;1759205;80;21064;-48
2021/10/26 05:11:21;;;;;;;12.50;7.92;;;;;;;21.47;51.33;102036.86;1762678;79;21087;-52
2021/10/26 05:13:47;;;;;;;12.30;8.33;;;;;;;21.46;51.00;102030.22;1763956;79;20910;-51
2021/10/26 05:16:14;;;;;;;13.00;7.78;;;;;;;21.46;50.64;102037.14;1765885;80;21240;-48
2021/10/26 05:18:43;;;;;;;12.45;7.67;;;;;;;21.45;50.39;102029.95;1760011;80;21537;-48
2021/10/26 05:21:13;;;;;;;10.58;7.12;;;;;;;21.43;50.09;102035.21;1766804;79;21535;-48
2021/10/26 05:23:37;;;;;;;13.03;7.53;;;;;;;21.44;50.03;102033.27;1759235;80;22122;-49
2021/10/26 05:26:03;;;;;;;11.85;7.00;;;;;;;21.44;50.06;102038.81;1765556;80;21225;-50
2021/10/26 05:28:29;;;;;;;16.52;7.42;;;;;;;21.45;50.13;102036.31;1765893;79;21071;-47
2021/10/26 05:30:55;;;;;;;10.08;5.80;;;;;;;21.46;50.22;102042.12;1767791;79;20870;-47
2021/10/26 05:33:21;;;;;;;21.25;11.00;;;;;;;21.47;50.31;102052.64;1762008;80;21536;-46
2021/10/26 05:35:47;;;;;;;26.12;12.05;;;;;;;21.47;50.41;102054.03;1762787;80;21136;-50
2021/10/26 05:38:13;;;;;;;20.23;10.20;;;;;;;21.46;50.50;102049.05;1767101;79;21820;-47
2021/10/26 05:40:39;;;;;;;16.30;8.10;;;;;;;21.47;50.60;102052.09;1765751;80;21052;-46
2021/10/26 05:43:05;;;;;;;12.95;8.00;;;;;;;21.47;50.69;102053.47;1760192;79;21642;-48
2021/10/26 05:45:31;;;;;;;11.85;7.22;;;;;;;21.48;50.79;102057.04;1760318;79;21091;-46
2021/10/26 05:47:57;;;;;;;11.33;6.80;;;;;;;21.48;50.85;102061.19;1770344;79;21793;-50
2021/10/26 05:50:23;;;;;;;16.55;8.18;;;;;;;21.47;50.91;102059.01;1763160;79;21276;-47
2021/10/26 05:52:50;;;;;;;31.33;10.93;;;;;;;21.48;50.95;102060.63;1770060;79;20909;-46
2021/10/26 05:55:16;;;;;;;21.10;8.50;;;;;;;21.47;51.00;102064.55;1784473;78;21056;-46
2021/10/26 05:57:42;;;;;;;15.95;8.00;;;;;;;21.48;51.04;102055.66;1772076;80;20958;-45
2021/10/26 06:00:08;;;;;;;12.13;7.47;;;;;;;21.48;51.06;102049.56;1777652;80;20870;-47
2021/10/26 06:02:34;;;;;;;12.03;6.35;;;;;;;21.47;51.11;102050.70;1776694;80;21007;-46
2021/10/26 06:05:00;;;;;;;12.23;6.80;;;;;;;21.48;51.11;102051.50;1775758;80;22011;-46
2021/10/26 06:07:26;;;;;;;13.22;6.62;;;;;;;21.46;51.13;102049.05;1771150;80;21123;-45
2021/10/26 06:09:52;;;;;;;10.98;6.95;;;;;;;21.46;51.16;102054.58;1776360;80;21330;-47
2021/10/26 06:12:24;;;;;;;12.75;6.97;;;;;;;21.46;51.14;102050.98;1777516;80;21560;-45
2021/10/26 06:14:47;;;;;;;12.45;7.08;;;;;;;21.47;51.14;102055.41;1774226;80;21187;-46
2021/10/26 06:17:13;;;;;;;11.85;7.15;;;;;;;21.45;51.18;102050.16;1778103;79;20933;-46
2021/10/26 06:19:39;;;;;;;12.93;7.12;;;;;;;21.45;51.17;102057.08;1775336;80;21125;-48
2021/10/26 06:22:05;;;;;;;11.93;6.90;;;;;;;21.46;51.16;102059.30;1769008;78;21136;-47
2021/10/26 06:24:31;;;;;;;12.45;6.60;;;;;;;21.46;51.16;102064.27;1771097;80;21146;-45
2021/10/26 06:26:57;;;;;;;11.93;7.28;;;;;;;21.45;51.17;102062.61;1778339;80;22386;-46
2021/10/26 06:29:23;;;;;;;12.58;7.17;;;;;;;21.45;51.15;102068.16;1780993;80;20882;-45
2021/10/26 06:31:49;;;;;;;14.70;6.83;;;;;;;21.45;51.15;102074.25;1778667;80;21696;-46
2021/10/26 06:34:15;;;;;;;11.93;6.55;;;;;;;21.44;51.15;102067.87;1772542;80;21098;-46
2021/10/26 06:36:42;;;;;;;15.30;6.80;;;;;;;21.44;51.14;102072.03;1770125;80;21123;-46
2021/10/26 06:39:08;;;;;;;13.22;6.55;;;;;;;21.43;51.14;102075.91;1774402;79;22153;-45
2021/10/26 06:41:34;;;;;;;12.37;6.65;;;;;;;21.44;51.13;102084.49;1769273;80;21081;-47
2021/10/26 06:44:02;;;;;;;13.68;6.55;;;;;;;21.43;51.13;102079.27;1772628;80;21065;-47
2021/10/26 06:46:28;;;;;;;10.25;6.17;;;;;;;21.43;51.13;102080.06;1774473;79;21166;-46
2021/10/26 06:48:54;;;;;;;10.40;6.47;;;;;;;21.43;51.13;102082.28;1774704;80;21079;-47
2021/10/26 06:51:20;;;;;;;9.20;6.28;;;;;;;21.43;51.12;102087.81;1783703;79;21131;-49
2021/10/26 06:53:47;;;;;;;9.70;6.28;;;;;;;21.42;51.12;102088.13;1769933;80;21350;-46
2021/10/26 06:56:15;;;;;;;10.53;6.30;;;;;;;21.42;51.09;102082.59;1775598;80;21061;-45
2021/10/26 06:58:40;;;;;;;9.95;6.37;;;;;;;21.42;51.09;102079.83;1767449;78;21068;-46
2021/10/26 07:01:08;;;;;;;12.05;6.45;;;;;;;21.41;51.09;102081.77;1765491;79;21174;-46
2021/10/26 07:03:37;;;;;;;10.43;6.53;;;;;;;21.41;51.10;102081.77;1767673;79;21529;-45
2021/10/26 07:06:05;;;;;;;9.60;6.10;;;;;;;21.42;51.09;102075.67;1766823;79;21541;-45
2021/10/26 07:08:31;;;;;;;11.50;6.62;;;;;;;21.41;51.08;102085.91;1762581;79;21357;-47
2021/10/26 07:10:58;;;;;;;10.18;6.65;;;;;;;21.41;51.08;102083.70;1766236;79;21143;-45
2021/10/26 07:13:25;;;;;;;14.65;6.20;;;;;;;21.40;51.07;102085.64;1767873;79;21092;-47
2021/10/26 07:15:52;;;;;;;11.93;5.90;;;;;;;21.40;51.07;102082.05;1766230;79;22217;-45
2021/10/26 07:18:18;;;;;;;9.33;6.25;;;;;;;21.39;51.07;102083.98;1767433;79;21085;-48
2021/10/26 07:20:44;;;;;;;9.63;5.95;;;;;;;21.39;51.07;102083.16;1765712;79;20919;-46
2021/10/26 07:23:10;;;;;;;8.78;6.08;;;;;;;21.41;51.08;102086.47;1767103;79;20980;-46
2021/10/26 07:25:36;;;;;;;11.25;5.92;;;;;;;21.38;51.07;102079.59;1769368;79;21068;-45
2021/10/26 07:28:04;;;;;;;9.05;6.08;;;;;;;21.39;51.05;102087.30;1769930;79;21117;-46
2021/10/26 07:30:35;;;;;;;11.57;6.20;;;;;;;21.39;51.03;102093.67;1769682;79;21019;-47
2021/10/26 07:33:02;;;;;;;8.38;5.80;;;;;;;21.38;51.02;102084.30;1769462;79;21588;-46
2021/10/26 07:35:52;;;;;;;8.10;6.00;;;;;;;21.38;51.03;102093.43;1767158;79;21029;-47
2021/10/26 07:37:57;;;;;;;10.90;5.67;;;;;;;21.38;51.01;102090.66;1755557;79;21055;-45
2021/10/26 07:40:23;;;;;;;9.35;5.50;;;;;;;21.38;51.01;102081.52;1765749;79;21326;-45
2021/10/26 07:42:49;;;;;;;8.50;5.37;;;;;;;21.37;50.98;102086.23;1770902;80;21146;-47
2021/10/26 07:45:15;;;;;;;11.80;6.45;;;;;;;21.38;50.99;102084.30;1768023;79;21001;-46
2021/10/26 07:47:41;;;;;;;8.88;6.00;;;;;;;21.36;50.99;102079.59;1765948;79;22055;-47
2021/10/26 07:50:09;;;;;;;8.00;5.97;;;;;;;21.37;50.98;102075.72;1764523;79;21070;-47
2021/10/26 07:52:35;;;;;;;10.20;5.95;;;;;;;21.36;50.97;102080.98;1763979;79;21165;-48
2021/10/26 07:55:06;;;;;;;7.33;5.20;;;;;;;21.35;50.96;102066.30;1767559;79;21159;-47
2021/10/26 07:57:32;;;;;;;11.55;5.53;;;;;;;21.36;50.95;102072.67;1766346;79;21059;-46
2021/10/26 07:59:59;;;;;;;11.15;5.92;;;;;;;21.36;50.93;102068.52;1768772;79;21559;-45
2021/10/26 08:02:25;;;;;;;9.48;5.58;;;;;;;21.35;50.93;102073.78;1761306;79;21153;-46
2021/10/26 08:04:54;;;;;;;10.28;5.55;;;;;;;21.36;50.93;102080.42;1765513;79;22192;-48
2021/10/26 08:07:21;;;;;;;9.73;5.15;;;;;;;21.35;50.93;102066.30;1765820;79;21102;-46
2021/10/26 08:09:49;;;;;;;8.65;5.83;;;;;;;21.36;50.91;102071.29;1764358;79;21448;-45
2021/10/26 08:12:15;;;;;;;9.63;5.90;;;;;;;21.36;50.91;102064.37;1763548;80;21020;-45
2021/10/26 08:14:41;;;;;;;10.35;5.60;;;;;;;21.34;50.90;102066.03;1761854;79;21089;-47
2021/10/26 08:17:08;;;;;;;8.60;5.05;;;;;;;21.34;50.91;102063.27;1765867;80;21161;-46
2021/10/26 08:19:42;;;;;;;6.78;5.47;;;;;;;21.33;50.92;102057.48;1765397;79;21094;-47
2021/10/26 08:22:17;;;;;;;9.30;5.20;;;;;;;21.33;50.92;102063.58;1766644;79;21313;-46
2021/10/26 08:24:42;;;;;;;8.48;5.15;;;;;;;21.32;50.91;102061.36;1762504;79;21699;-46
2021/10/26 08:27:10;;;;;;;7.67;4.97;;;;;;;21.34;50.91;102056.93;1764290;79;22250;-46
2021/10/26 08:29:43;;;;;;;12.10;5.22;;;;;;;21.33;50.93;102060.81;1764751;79;21540;-46
2021/10/26 08:32:25;;;;;;;9.73;5.55;;;;;;;21.32;50.91;102053.61;1759547;79;21877;-46
2021/10/26 08:34:44;;;;;;;7.53;5.55;;;;;;;21.32;50.93;102052.23;1758807;79;21140;-45
2021/10/26 08:37:12;;;;;;;9.55;6.05;;;;;;;21.31;50.93;102038.95;1750259;79;38595;-46
2021/10/26 08:39:41;;;;;;;8.30;5.55;;;;;;;21.44;50.64;102042.96;1768340;79;21165;-45
2021/10/26 08:42:10;;;;;;;7.67;5.67;;;;;;;21.42;50.71;102039.68;1767719;79;21325;-46
2021/10/26 08:44:37;;;;;;;7.28;5.30;;;;;;;21.41;50.74;102037.47;1763451;79;20994;-46
2021/10/26 08:47:03;;;;;;;8.30;5.72;;;;;;;21.39;50.67;102037.47;1760867;79;21171;-45
2021/10/26 08:49:29;;;;;;;8.78;5.37;;;;;;;21.37;50.57;102036.41;1746514;81;21112;-49
2021/10/26 08:51:56;;;;;;;6.67;5.12;;;;;;;21.37;50.54;102041.11;1744236;81;21078;-50
2021/10/26 08:54:23;;;;;;;8.73;5.28;;;;;;;21.36;50.51;102036.69;1714649;83;21296;-46
2021/10/26 08:56:49;;;;;;;8.00;4.75;;;;;;;21.34;50.49;102031.43;1757298;80;21094;-46
2021/10/26 08:59:19;;;;;;;5.83;4.85;;;;;;;21.33;50.49;102029.80;1756533;80;21616;-46
2021/10/26 09:01:55;;;;;;;9.58;5.47;;;;;;;21.34;50.49;102036.17;1743449;80;21162;-48
2021/10/26 09:04:21;;;;;;;7.97;5.20;;;;;;;21.33;50.49;102028.98;1744506;81;21131;-46
2021/10/26 09:06:52;;;;;;;6.97;4.28;;;;;;;21.30;50.48;102026.22;1744935;81;21210;-46
2021/10/26 09:09:21;;;;;;;8.30;4.78;;;;;;;21.30;50.46;102021.27;1744057;81;21137;-46
2021/10/26 09:17:26;;;;;;;8.10;4.62;;;;;;;21.27;50.48;102012.14;1744268;80;21574;-47
2021/10/26 09:19:52;;;;;;;5.40;3.92;;;;;;;21.26;50.48;102010.52;1738665;81;21004;-46
2021/10/26 09:22:18;;;;;;;7.08;4.95;;;;;;;21.25;50.49;102006.09;1717724;81;21033;-46
2021/10/26 09:25:04;;;;;;;9.45;6.17;;;;;;;21.25;50.48;102000.55;1746550;81;21091;-50
2021/10/26 09:27:30;;;;;;;10.75;7.87;;;;;;;21.24;50.48;101998.89;1743355;81;21060;-46
2021/10/26 09:30:00;;;;;;;11.22;7.70;;;;;;;21.23;50.46;101987.55;1748227;80;21542;-45
2021/10/26 09:32:47;;;;;;;9.40;6.92;;;;;;;21.23;50.44;101986.17;1742059;81;21090;-45
2021/10/26 09:35:16;;;;;;;12.47;7.92;;;;;;;21.21;50.44;101980.95;1744859;80;21588;-45
2021/10/26 09:37:46;;;;;;;12.78;8.25;;;;;;;21.21;50.41;101983.72;1748747;81;21013;-47
2021/10/26 09:40:14;;;;;;;13.45;7.83;;;;;;;21.20;50.42;101972.92;1743236;81;21064;-49
2021/10/26 09:42:46;;;;;;;12.98;7.60;;;;;;;21.20;50.40;101974.31;1745756;81;21080;-46
2021/10/26 09:45:26;;;;;;;11.10;6.65;;;;;;;21.19;50.39;101974.03;1742147;81;21648;-45
2021/10/26 09:47:59;;;;;;;9.83;6.62;;;;;;;21.19;50.35;101972.66;1748261;80;21028;-47
2021/10/26 09:50:34;;;;;;;10.70;7.40;;;;;;;21.18;50.35;101965.45;1749037;80;21158;-46
2021/10/26 09:53:08;;;;;;;13.22;7.90;;;;;;;21.18;50.34;101962.69;1759357;79;21487;-47
2021/10/26 09:55:48;;;;;;;12.30;8.13;;;;;;;21.17;50.32;101964.66;1758473;80;21001;-47
2021/10/26 09:58:22;;;;;;;13.22;9.48;;;;;;;21.17;50.29;101959.69;1762511;79;21048;-47
2021/10/26 10:00:51;;;;;;;12.78;9.03;;;;;;;21.17;50.27;101950.83;1752864;79;21150;-46
2021/10/26 10:03:25;;;;;;;12.13;8.65;;;;;;;21.16;50.26;101948.34;1756053;79;20982;-47
2021/10/26 10:05:59;;;;;;;13.22;8.48;;;;;;;21.16;50.24;101955.26;1761095;80;21498;-46
2021/10/26 10:08:34;;;;;;;11.03;8.18;;;;;;;21.16;50.21;101937.27;1757570;79;21543;-46
2021/10/26 10:11:17;;;;;;;11.57;8.15;;;;;;;21.14;50.22;101929.25;1761549;80;21163;-45
2021/10/26 10:13:56;;;;;;;11.38;7.85;;;;;;;21.14;50.20;101933.95;1756842;80;21093;-47
2021/10/26 10:16:24;;;;;;;12.70;8.20;;;;;;;21.14;50.17;101928.42;1760038;79;21085;-45
2021/10/26 10:18:52;;;;;;;14.40;9.35;;;;;;;21.14;50.16;101927.04;1761403;79;21133;-46
2021/10/26 10:21:24;;;;;;;12.93;9.18;;;;;;;21.13;50.15;101920.67;1761460;79;21091;-47
2021/10/26 10:23:50;;;;;;;12.80;10.10;;;;;;;21.13;50.14;101917.11;1761849;79;21143;-45
2021/10/26 10:26:28;;;;;;;14.03;9.98;;;;;;;21.14;50.10;101917.36;1761668;79;21058;-47
2021/10/26 10:28:55;;;;;;;11.80;9.03;;;;;;;21.12;50.10;101914.91;1760422;79;20997;-46
2021/10/26 10:31:25;;;;;;;13.20;9.08;;;;;;;21.12;50.09;101909.37;1760852;79;21933;-47
2021/10/26 10:33:50;;;;;;;11.45;8.78;;;;;;;21.12;50.08;101905.73;1760788;79;21017;-45
2021/10/26 10:36:20;;;;;;;12.47;8.38;;;;;;;21.11;50.06;101895.23;1757641;79;21116;-46
2021/10/26 10:38:46;;;;;;;12.97;8.30;;;;;;;21.07;49.86;101878.95;1759780;80;21494;-45
2021/10/26 10:41:34;;;;;;;12.28;8.58;;;;;;;21.07;49.86;101878.95;1758758;79;21105;-46
2021/10/26 10:44:06;;;;;;;11.85;9.05;;;;;;;21.12;50.04;101878.06;1762441;79;21159;-46
2021/10/26 10:46:44;;;;;;;11.95;9.03;;;;;;;21.12;50.01;101880.83;1760780;79;21085;-45
2021/10/26 10:49:27;;;;;;;12.37;8.73;;;;;;;21.11;50.02;101880.01;1763134;79;21075;-46
2021/10/26 10:52:00;;;;;;;11.68;8.55;;;;;;;21.11;50.02;101871.70;1767254;79;21665;-47
2021/10/26 10:54:48;;;;;;;11.30;8.00;;;;;;;21.11;49.99;101866.73;1766843;79;21088;-45
2021/10/26 10:57:25;;;;;;;10.93;8.20;;;;;;;21.10;49.99;101867.84;1766297;79;21510;-47
2021/10/26 10:59:52;;;;;;;13.30;8.65;;;;;;;21.10;49.99;101854.83;1737291;80;21079;-48
2021/10/26 11:02:37;;;;;;;11.53;8.20;;;;;;;21.10;49.97;101847.09;1765186;79;21099;-48
2021/10/26 11:05:05;;;;;;;11.50;8.25;;;;;;;21.08;49.97;101850.17;1768211;79;21003;-47
2021/10/26 11:07:47;;;;;;;11.05;7.92;;;;;;;21.09;49.97;101849.61;1766127;79;21059;-47
2021/10/26 11:10:16;;;;;;;11.35;7.72;;;;;;;21.08;49.98;101850.73;1765557;79;21528;-47
2021/10/26 11:12:43;;;;;;;10.68;8.45;;;;;;;21.09;49.98;101848.23;1765014;79;21565;-46
2021/10/26 11:15:21;;;;;;;12.43;7.90;;;;;;;21.08;49.98;101840.48;1766000;79;21217;-48
2021/10/26 11:17:54;;;;;;;12.05;8.10;;;;;;;21.09;49.98;101839.93;1760966;79;21075;-47
2021/10/26 11:20:32;;;;;;;10.90;7.92;;;;;;;21.10;49.98;101837.41;1765059;79;21094;-45
2021/10/26 11:23:04;;;;;;;13.60;8.43;;;;;;;21.10;49.97;101831.87;1765573;79;21427;-48
2021/10/26 11:25:44;;;;;;;10.88;8.10;;;;;;;21.10;49.97;101824.95;1770975;79;21077;-47
2021/10/26 11:28:20;;;;;;;10.50;7.87;;;;;;;21.09;49.98;101825.50;1763474;79;21628;-46